createdAt,value
2023-04-16T00:00:25.966Z,92564.88
2023-04-16T00:05:27.743Z,92566.34
2023-04-16T00:10:29.545Z,92562.09
2023-04-16T00:15:31.357Z,92555.34
2023-04-16T00:20:35.316Z,92551.38
2023-04-16T00:25:37.105Z,92561.00
2023-04-16T00:30:38.884Z,92554.53
2023-04-16T00:35:40.862Z,92555.22
2023-04-16T00:40:43.770Z,92561.63
2023-04-16T00:45:45.966Z,92559.41
2023-04-16T00:50:48.649Z,92567.97
2023-04-16T00:55:51.034Z,92536.75
2023-04-16T01:00:52.945Z,92572.78
2023-04-16T01:05:55.777Z,92577.47
2023-04-16T01:10:57.662Z,92581.19
2023-04-16T01:16:00.884Z,92576.41
2023-04-16T01:21:04.021Z,92567.22
2023-04-16T01:26:06.019Z,92577.16
2023-04-16T01:31:07.932Z,92576.28
2023-04-16T01:36:21.530Z,92580.09
2023-04-16T01:41:23.561Z,92573.66
2023-04-16T01:46:31.905Z,92569.78
2023-04-16T01:51:33.984Z,92578.44
2023-04-16T01:56:35.837Z,92577.06
2023-04-16T02:01:38.160Z,92578.34
2023-04-16T02:06:40.044Z,92576.72
2023-04-16T02:11:41.869Z,92567.44
2023-04-16T02:16:43.800Z,92577.28
2023-04-16T02:22:04.373Z,92572.19
2023-04-16T02:27:06.491Z,92562.22
2023-04-16T02:32:08.588Z,92547.13
2023-04-16T02:37:11.348Z,92558.38
2023-04-16T02:42:14.349Z,92565.44
2023-04-16T02:47:16.294Z,92570.50
2023-04-16T02:52:18.144Z,92564.47
2023-04-16T02:57:20.163Z,92578.13
2023-04-16T03:02:22.138Z,92581.44
2023-04-16T03:07:24.113Z,92583.38
2023-04-16T03:12:26.047Z,92593.72
2023-04-16T03:17:27.944Z,92587.84
2023-04-16T03:22:30.729Z,92582.88
2023-04-16T03:27:33.084Z,92560.13
2023-04-16T03:32:35.003Z,92583.16
2023-04-16T03:37:41.641Z,92574.22
2023-04-16T03:42:44.145Z,92569.56
2023-04-16T03:47:48.625Z,92577.81
2023-04-16T03:52:50.542Z,92572.09
2023-04-16T03:57:53.924Z,92587.88
2023-04-16T04:02:56.167Z,92574.97
2023-04-16T04:07:58.665Z,92578.63
2023-04-16T04:13:01.707Z,92570.59
2023-04-16T04:18:03.790Z,92569.22
2023-04-16T04:23:05.816Z,92575.44
2023-04-16T04:28:07.778Z,92576.13
2023-04-16T04:33:09.673Z,92573.53
2023-04-16T04:38:15.589Z,92582.97
2023-04-16T04:43:19.052Z,92584.66
2023-04-16T04:48:26.230Z,92573.34
2023-04-16T04:53:28.321Z,92597.53
2023-04-16T04:58:30.349Z,92592.00
2023-04-16T05:03:32.460Z,92593.16
2023-04-16T05:08:34.289Z,92597.31
2023-04-16T05:13:36.180Z,92595.41
2023-04-16T05:18:37.945Z,92607.94
2023-04-16T05:23:39.685Z,92598.50
2023-04-16T05:28:41.442Z,92611.47
2023-04-16T05:33:43.308Z,92609.81
2023-04-16T05:38:45.221Z,92616.31
2023-04-16T05:43:47.022Z,92623.78
2023-04-16T05:48:48.942Z,92616.47
2023-04-16T05:53:50.854Z,92620.41
2023-04-16T05:58:52.666Z,92616.88
2023-04-16T06:03:54.714Z,92620.91
2023-04-16T06:08:56.674Z,92621.03
2023-04-16T06:13:58.532Z,92623.63
2023-04-16T06:19:00.409Z,92612.22
2023-04-16T06:24:02.552Z,92620.69
2023-04-16T06:29:04.721Z,92616.53
2023-04-16T06:34:06.504Z,92604.91
2023-04-16T06:39:08.657Z,92596.31
2023-04-16T06:44:10.707Z,92621.34
2023-04-16T06:49:12.919Z,92617.31
2023-04-16T06:54:14.795Z,92596.59
2023-04-16T06:59:17.001Z,92618.09
2023-04-16T07:04:18.910Z,92624.63
2023-04-16T07:09:21.026Z,92616.69
2023-04-16T07:14:23.106Z,92604.66
2023-04-16T07:19:24.998Z,92615.41
2023-04-16T07:24:27.323Z,92621.09
2023-04-16T07:29:29.067Z,92617.09
2023-04-16T07:34:31.111Z,92627.25
2023-04-16T07:39:32.861Z,92617.41
2023-04-16T07:44:34.610Z,92610.50
2023-04-16T07:49:36.465Z,92620.19
2023-04-16T07:54:38.243Z,92608.69
2023-04-16T07:59:40.233Z,92637.66
2023-04-16T08:04:42.900Z,92636.00
2023-04-16T08:09:49.700Z,92634.47
2023-04-16T08:14:51.603Z,92644.34
2023-04-16T08:19:53.469Z,92639.81
2023-04-16T08:24:56.729Z,92640.09
2023-04-16T08:29:58.592Z,92652.88
2023-04-16T08:35:00.598Z,92655.03
2023-04-16T08:40:03.505Z,92654.59
2023-04-16T08:45:18.827Z,92665.34
2023-04-16T08:50:25.023Z,92664.28
2023-04-16T08:55:35.559Z,92666.00
2023-04-16T09:00:39.418Z,92659.34
2023-04-16T09:05:42.681Z,92664.75
2023-04-16T09:10:44.469Z,92671.53
2023-04-16T09:15:46.542Z,92674.31
2023-04-16T09:20:51.916Z,92681.69
2023-04-16T09:25:53.995Z,92688.97
2023-04-16T09:31:17.500Z,92688.19
2023-04-16T09:36:23.151Z,92686.69
2023-04-16T09:41:27.648Z,92661.13
2023-04-16T09:46:30.788Z,92687.91
2023-04-16T09:51:44.349Z,92679.91
2023-04-16T09:56:47.068Z,92674.53
2023-04-16T10:01:50.384Z,92662.44
2023-04-16T10:07:06.307Z,92683.50
2023-04-16T10:12:08.703Z,92690.06
2023-04-16T10:17:10.708Z,92680.84
2023-04-16T10:22:12.903Z,92690.84
2023-04-16T10:27:14.718Z,92697.72
2023-04-16T10:32:18.587Z,92678.53
2023-04-16T10:37:30.008Z,92670.59
2023-04-16T10:42:31.897Z,92693.03
2023-04-16T10:47:40.768Z,92692.88
2023-04-16T10:52:42.724Z,92709.25
2023-04-16T10:57:49.601Z,92700.53
2023-04-16T11:02:54.812Z,92696.19
2023-04-16T11:08:13.521Z,92700.59
2023-04-16T11:13:16.949Z,92688.69
2023-04-16T11:18:21.867Z,92678.91
2023-04-16T11:23:23.752Z,92696.34
2023-04-16T11:28:35.902Z,92677.03
2023-04-16T11:33:38.069Z,92675.16
2023-04-16T11:38:43.183Z,92689.47
2023-04-16T11:43:45.135Z,92681.59
2023-04-16T11:48:51.117Z,92673.25
2023-04-16T11:53:54.304Z,92681.06
2023-04-16T11:59:25.586Z,92685.03
2023-04-16T12:04:27.997Z,92682.53
2023-04-16T12:09:29.859Z,92675.72
2023-04-16T12:14:32.141Z,92680.81
2023-04-16T12:19:47.765Z,92673.53
2023-04-16T12:24:49.563Z,92675.38
2023-04-16T12:30:07.387Z,92671.00
2023-04-16T12:35:12.594Z,92669.09
2023-04-16T12:40:14.352Z,92677.28
2023-04-16T12:45:16.127Z,92679.59
2023-04-16T12:50:18.388Z,92680.88
2023-04-16T12:55:20.522Z,92673.50
2023-04-16T13:00:22.651Z,92668.50
2023-04-16T13:05:24.440Z,92645.19
2023-04-16T13:10:27.827Z,92661.38
2023-04-16T13:15:29.664Z,92649.28
2023-04-16T13:20:31.478Z,92665.59
2023-04-16T13:25:33.331Z,92650.41
2023-04-16T13:30:35.205Z,92657.59
2023-04-16T13:35:37.312Z,92641.97
2023-04-16T13:40:39.106Z,92642.56
2023-04-16T13:45:41.533Z,92641.94
2023-04-16T13:50:43.846Z,92647.28
2023-04-16T13:55:45.868Z,92611.44
2023-04-16T14:00:47.782Z,92631.41
2023-04-16T14:05:49.626Z,92638.38
2023-04-16T14:10:51.753Z,92599.97
2023-04-16T14:15:54.829Z,92642.47
2023-04-16T14:20:56.738Z,92637.31
2023-04-16T14:25:58.793Z,92627.53
2023-04-16T14:31:00.620Z,92630.75
2023-04-16T14:36:03.450Z,92633.72
2023-04-16T14:41:05.531Z,92628.06
2023-04-16T14:46:07.472Z,92619.69
2023-04-16T14:51:09.548Z,92627.47
2023-04-16T14:56:12.981Z,92630.06
2023-04-16T15:01:15.043Z,92601.78
2023-04-16T15:06:17.067Z,92622.22
2023-04-16T15:11:19.106Z,92621.19
2023-04-16T15:16:21.431Z,92616.25
2023-04-16T15:21:23.370Z,92594.44
2023-04-16T15:26:26.026Z,92610.41
2023-04-16T15:31:27.958Z,92598.84
2023-04-16T15:36:29.978Z,92615.75
2023-04-16T15:41:32.002Z,92613.31
2023-04-16T15:46:33.918Z,92617.63
2023-04-16T15:51:36.191Z,92603.91
2023-04-16T15:56:38.236Z,92580.25
2023-04-16T16:01:40.203Z,92608.25
2023-04-16T16:06:42.465Z,92591.56
2023-04-16T16:11:44.473Z,92596.94
2023-04-16T16:16:46.402Z,92597.75
2023-04-16T16:21:48.375Z,92614.19
2023-04-16T16:26:50.341Z,92610.72
2023-04-16T16:31:52.335Z,92610.25
2023-04-16T16:36:54.210Z,92610.03
2023-04-16T16:41:56.893Z,92621.25
2023-04-16T16:46:58.892Z,92615.69
2023-04-16T16:52:00.957Z,92603.03
2023-04-16T16:57:03.360Z,92560.56
2023-04-16T17:02:05.783Z,92549.50
2023-04-16T17:07:07.701Z,92626.13
2023-04-16T17:12:09.535Z,92612.56
2023-04-16T17:17:11.362Z,92568.94
2023-04-16T17:22:13.328Z,92625.97
2023-04-16T17:27:15.153Z,92628.19
2023-04-16T17:32:17.081Z,92630.88
2023-04-16T17:37:18.941Z,92628.78
2023-04-16T17:42:20.789Z,92624.41
2023-04-16T17:47:22.684Z,92631.25
2023-04-16T17:52:24.505Z,92636.53
2023-04-16T17:57:27.263Z,92612.13
2023-04-16T18:02:29.192Z,92635.59
2023-04-16T18:07:32.513Z,92637.00
2023-04-16T18:12:34.444Z,92634.84
2023-04-16T18:17:36.405Z,92653.03
2023-04-16T18:22:38.249Z,92646.03
2023-04-16T18:27:40.020Z,92636.78
2023-04-16T18:32:59.882Z,92656.31
2023-04-16T18:38:03.692Z,92632.13
2023-04-16T18:43:05.718Z,92647.53
2023-04-16T18:48:07.531Z,92652.22
2023-04-16T18:53:09.391Z,92657.50
2023-04-16T18:58:11.641Z,92651.13
2023-04-16T19:03:13.571Z,92649.06
2023-04-16T19:08:15.418Z,92642.41
2023-04-16T19:13:17.163Z,92669.47
2023-04-16T19:18:18.987Z,92660.91
2023-04-16T19:23:21.202Z,92675.53
2023-04-16T19:28:23.802Z,92673.00
2023-04-16T19:33:25.770Z,92677.72
2023-04-16T19:38:27.740Z,92672.13
2023-04-16T19:43:31.056Z,92659.53
2023-04-16T19:48:33.010Z,92674.59
2023-04-16T19:53:34.881Z,92684.28
2023-04-16T19:58:36.818Z,92682.81
2023-04-16T20:03:38.899Z,92656.34
2023-04-16T20:08:40.887Z,92679.13
2023-04-16T20:13:43.216Z,92656.28
2023-04-16T20:18:46.169Z,92671.56
2023-04-16T20:23:48.162Z,92676.44
2023-04-16T20:28:49.987Z,92679.78
2023-04-16T20:33:51.767Z,92675.00
2023-04-16T20:38:53.987Z,92675.13
2023-04-16T20:43:56.063Z,92664.25
2023-04-16T20:48:57.923Z,92672.59
2023-04-16T20:53:59.692Z,92618.47
2023-04-16T20:59:01.595Z,92644.94
2023-04-16T21:04:03.645Z,92667.72
2023-04-16T21:09:06.070Z,92645.25
2023-04-16T21:14:07.937Z,92647.72
2023-04-16T21:19:10.054Z,92654.06
2023-04-16T21:24:12.090Z,92625.22
2023-04-16T21:29:13.950Z,92623.69
2023-04-16T21:34:16.032Z,92650.19
2023-04-16T21:39:19.797Z,92622.47
2023-04-16T21:44:21.607Z,92647.31
2023-04-16T21:49:23.455Z,92633.59
2023-04-16T21:54:25.489Z,92639.56
2023-04-16T21:59:27.412Z,92643.38
2023-04-16T22:04:37.284Z,92628.03
2023-04-16T22:09:39.106Z,92631.84
2023-04-16T22:14:49.227Z,92630.03
2023-04-16T22:20:00.701Z,92616.13
2023-04-16T22:25:03.420Z,92616.56
2023-04-16T22:30:07.403Z,92591.34
2023-04-16T22:35:09.540Z,92614.25
2023-04-16T22:40:11.956Z,92605.63
2023-04-16T22:45:13.917Z,92579.16
2023-04-16T22:50:16.102Z,92599.38
2023-04-16T22:55:18.060Z,92599.25
2023-04-16T23:00:20.860Z,92597.63
2023-04-16T23:05:22.675Z,92596.59
2023-04-16T23:10:24.509Z,92601.63
2023-04-16T23:15:26.398Z,92599.19
2023-04-16T23:20:29.057Z,92568.09
2023-04-16T23:25:31.065Z,92597.09
2023-04-16T23:30:32.859Z,92578.69
2023-04-16T23:35:34.716Z,92591.75
2023-04-16T23:40:36.472Z,92587.53
2023-04-16T23:45:38.220Z,92589.91
2023-04-16T23:50:40.038Z,92586.28
2023-04-16T23:55:41.811Z,92586.50
